sensor_id;sensor_type;location;lat;lon;timestamp;temperature;humidity
27534;DHT22;14973;51.460;7.008;2023-08-12T00:00:11;20.90;99.90
27534;DHT22;14973;51.460;7.008;2023-08-12T00:02:43;20.90;99.90
27534;DHT22;14973;51.460;7.008;2023-08-12T00:05:10;20.90;99.90
27534;DHT22;14973;51.460;7.008;2023-08-12T00:07:39;20.80;99.90
27534;DHT22;14973;51.460;7.008;2023-08-12T00:10:09;20.80;99.90
27534;DHT22;14973;51.460;7.008;2023-08-12T00:12:35;20.90;99.90
27534;DHT22;14973;51.460;7.008;2023-08-12T00:15:02;20.90;99.90
27534;DHT22;14973;51.460;7.008;2023-08-12T00:17:28;20.80;99.90
27534;DHT22;14973;51.460;7.008;2023-08-12T00:19:54;20.80;99.90
27534;DHT22;14973;51.460;7.008;2023-08-12T00:22:19;20.80;99.90
27534;DHT22;14973;51.460;7.008;2023-08-12T00:24:45;20.70;99.90
27534;DHT22;14973;51.460;7.008;2023-08-12T00:27:11;20.70;99.90
27534;DHT22;14973;51.460;7.008;2023-08-12T00:29:36;20.70;99.90
27534;DHT22;14973;51.460;7.008;2023-08-12T00:32:03;20.60;99.90
27534;DHT22;14973;51.460;7.008;2023-08-12T00:34:28;20.70;99.90
27534;DHT22;14973;51.460;7.008;2023-08-12T00:36:54;20.60;99.90
27534;DHT22;14973;51.460;7.008;2023-08-12T00:39:20;20.60;99.90
27534;DHT22;14973;51.460;7.008;2023-08-12T00:41:46;20.60;99.90
27534;DHT22;14973;51.460;7.008;2023-08-12T00:44:12;20.70;99.90
27534;DHT22;14973;51.460;7.008;2023-08-12T00:46:41;20.80;99.90
27534;DHT22;14973;51.460;7.008;2023-08-12T00:49:08;20.80;99.90
27534;DHT22;14973;51.460;7.008;2023-08-12T00:51:34;20.70;99.90
27534;DHT22;14973;51.460;7.008;2023-08-12T00:54:02;20.70;99.90
27534;DHT22;14973;51.460;7.008;2023-08-12T00:56:30;20.70;99.90
27534;DHT22;14973;51.460;7.008;2023-08-12T00:58:58;20.80;99.90
27534;DHT22;14973;51.460;7.008;2023-08-12T01:01:25;20.70;99.90
27534;DHT22;14973;51.460;7.008;2023-08-12T01:03:51;20.60;99.90
27534;DHT22;14973;51.460;7.008;2023-08-12T01:06:17;20.60;99.90
27534;DHT22;14973;51.460;7.008;2023-08-12T01:08:42;20.60;99.90
27534;DHT22;14973;51.460;7.008;2023-08-12T01:11:21;20.60;99.90
27534;DHT22;14973;51.460;7.008;2023-08-12T01:14:07;20.70;99.90
27534;DHT22;14973;51.460;7.008;2023-08-12T01:16:37;20.60;99.90
27534;DHT22;14973;51.460;7.008;2023-08-12T01:19:06;20.60;99.90
27534;DHT22;14973;51.460;7.008;2023-08-12T01:21:37;20.50;99.90
27534;DHT22;14973;51.460;7.008;2023-08-12T01:24:06;20.60;99.90
27534;DHT22;14973;51.460;7.008;2023-08-12T01:26:32;20.50;99.90
27534;DHT22;14973;51.460;7.008;2023-08-12T01:28:57;20.50;99.90
27534;DHT22;14973;51.460;7.008;2023-08-12T01:31:33;20.50;99.90
27534;DHT22;14973;51.460;7.008;2023-08-12T01:34:14;20.50;99.90
27534;DHT22;14973;51.460;7.008;2023-08-12T01:36:46;20.60;99.90
27534;DHT22;14973;51.460;7.008;2023-08-12T01:39:16;20.60;99.90
27534;DHT22;14973;51.460;7.008;2023-08-12T01:41:44;20.60;99.90
27534;DHT22;14973;51.460;7.008;2023-08-12T01:44:09;20.60;99.90
27534;DHT22;14973;51.460;7.008;2023-08-12T01:46:36;20.60;99.90
27534;DHT22;14973;51.460;7.008;2023-08-12T01:49:01;20.70;99.90
27534;DHT22;14973;51.460;7.008;2023-08-12T01:51:27;20.70;99.90
27534;DHT22;14973;51.460;7.008;2023-08-12T01:53:52;20.70;99.90
27534;DHT22;14973;51.460;7.008;2023-08-12T01:56:18;20.60;99.90
27534;DHT22;14973;51.460;7.008;2023-08-12T01:58:43;20.60;99.90
27534;DHT22;14973;51.460;7.008;2023-08-12T02:01:09;20.50;99.90
27534;DHT22;14973;51.460;7.008;2023-08-12T02:03:34;20.50;99.90
27534;DHT22;14973;51.460;7.008;2023-08-12T02:06:00;20.50;99.90
27534;DHT22;14973;51.460;7.008;2023-08-12T02:08:26;20.50;99.90
27534;DHT22;14973;51.460;7.008;2023-08-12T02:10:51;20.40;99.90
27534;DHT22;14973;51.460;7.008;2023-08-12T02:13:17;20.30;99.90
27534;DHT22;14973;51.460;7.008;2023-08-12T02:15:43;20.40;99.90
27534;DHT22;14973;51.460;7.008;2023-08-12T02:18:09;20.40;99.90
27534;DHT22;14973;51.460;7.008;2023-08-12T02:20:34;20.40;99.90
27534;DHT22;14973;51.460;7.008;2023-08-12T02:23:00;20.40;99.90
27534;DHT22;14973;51.460;7.008;2023-08-12T02:25:25;20.30;99.90
27534;DHT22;14973;51.460;7.008;2023-08-12T02:27:51;20.40;99.90
27534;DHT22;14973;51.460;7.008;2023-08-12T02:30:16;20.40;99.90
27534;DHT22;14973;51.460;7.008;2023-08-12T02:32:42;20.40;99.90
27534;DHT22;14973;51.460;7.008;2023-08-12T02:35:09;20.40;99.90
27534;DHT22;14973;51.460;7.008;2023-08-12T02:37:35;20.40;99.90
27534;DHT22;14973;51.460;7.008;2023-08-12T02:40:01;20.30;99.90
27534;DHT22;14973;51.460;7.008;2023-08-12T02:42:30;20.30;99.90
27534;DHT22;14973;51.460;7.008;2023-08-12T02:44:55;20.30;99.90
27534;DHT22;14973;51.460;7.008;2023-08-12T02:47:21;20.30;99.90
27534;DHT22;14973;51.460;7.008;2023-08-12T02:49:47;20.30;99.90
27534;DHT22;14973;51.460;7.008;2023-08-12T02:52:13;20.30;99.90
27534;DHT22;14973;51.460;7.008;2023-08-12T02:54:39;20.30;99.90
27534;DHT22;14973;51.460;7.008;2023-08-12T02:57:05;20.30;99.90
27534;DHT22;14973;51.460;7.008;2023-08-12T02:59:30;20.30;99.90
27534;DHT22;14973;51.460;7.008;2023-08-12T03:01:56;20.40;99.90
27534;DHT22;14973;51.460;7.008;2023-08-12T03:04:21;20.30;99.90
27534;DHT22;14973;51.460;7.008;2023-08-12T03:06:48;20.30;99.90
27534;DHT22;14973;51.460;7.008;2023-08-12T03:09:13;20.30;99.90
27534;DHT22;14973;51.460;7.008;2023-08-12T03:11:39;20.40;99.90
27534;DHT22;14973;51.460;7.008;2023-08-12T03:14:04;20.40;99.90
27534;DHT22;14973;51.460;7.008;2023-08-12T03:16:30;20.40;99.90
27534;DHT22;14973;51.460;7.008;2023-08-12T03:18:56;20.30;99.90
27534;DHT22;14973;51.460;7.008;2023-08-12T03:21:21;20.40;99.90
27534;DHT22;14973;51.460;7.008;2023-08-12T03:23:47;20.30;99.90
27534;DHT22;14973;51.460;7.008;2023-08-12T03:26:13;20.30;99.90
27534;DHT22;14973;51.460;7.008;2023-08-12T03:28:39;20.30;99.90
27534;DHT22;14973;51.460;7.008;2023-08-12T03:31:05;20.30;99.90
27534;DHT22;14973;51.460;7.008;2023-08-12T03:33:30;20.40;99.90
27534;DHT22;14973;51.460;7.008;2023-08-12T03:35:58;20.30;99.90
27534;DHT22;14973;51.460;7.008;2023-08-12T03:38:23;20.30;99.90
27534;DHT22;14973;51.460;7.008;2023-08-12T03:40:50;20.30;99.90
27534;DHT22;14973;51.460;7.008;2023-08-12T03:43:15;20.30;99.90
27534;DHT22;14973;51.460;7.008;2023-08-12T03:45:42;20.40;99.90
27534;DHT22;14973;51.460;7.008;2023-08-12T03:48:08;20.40;99.90
27534;DHT22;14973;51.460;7.008;2023-08-12T03:50:34;20.30;99.90
27534;DHT22;14973;51.460;7.008;2023-08-12T03:53:01;20.40;99.90
27534;DHT22;14973;51.460;7.008;2023-08-12T03:55:26;20.30;99.90
27534;DHT22;14973;51.460;7.008;2023-08-12T03:57:52;20.40;99.90
27534;DHT22;14973;51.460;7.008;2023-08-12T04:00:17;20.40;99.90
27534;DHT22;14973;51.460;7.008;2023-08-12T04:02:43;20.40;99.90
27534;DHT22;14973;51.460;7.008;2023-08-12T04:05:09;20.30;99.90
27534;DHT22;14973;51.460;7.008;2023-08-12T04:07:36;20.40;99.90
27534;DHT22;14973;51.460;7.008;2023-08-12T04:10:02;20.40;99.90
27534;DHT22;14973;51.460;7.008;2023-08-12T04:12:27;20.50;99.90
27534;DHT22;14973;51.460;7.008;2023-08-12T04:14:53;20.50;99.90
27534;DHT22;14973;51.460;7.008;2023-08-12T04:17:19;20.50;99.90
27534;DHT22;14973;51.460;7.008;2023-08-12T04:19:44;20.60;99.90
27534;DHT22;14973;51.460;7.008;2023-08-12T04:22:10;20.50;99.90
27534;DHT22;14973;51.460;7.008;2023-08-12T04:24:35;20.40;99.90
27534;DHT22;14973;51.460;7.008;2023-08-12T04:27:01;20.40;99.90
27534;DHT22;14973;51.460;7.008;2023-08-12T04:29:26;20.40;99.90
27534;DHT22;14973;51.460;7.008;2023-08-12T04:31:52;20.30;99.90
27534;DHT22;14973;51.460;7.008;2023-08-12T04:34:18;20.50;99.90
27534;DHT22;14973;51.460;7.008;2023-08-12T04:36:44;20.30;99.90
27534;DHT22;14973;51.460;7.008;2023-08-12T04:39:09;20.40;99.90
27534;DHT22;14973;51.460;7.008;2023-08-12T04:41:35;20.30;99.90
27534;DHT22;14973;51.460;7.008;2023-08-12T04:44:04;20.50;99.90
27534;DHT22;14973;51.460;7.008;2023-08-12T04:46:30;20.50;99.90
27534;DHT22;14973;51.460;7.008;2023-08-12T04:48:55;20.50;99.90
27534;DHT22;14973;51.460;7.008;2023-08-12T04:51:21;20.60;99.90
27534;DHT22;14973;51.460;7.008;2023-08-12T04:53:46;20.50;99.90
27534;DHT22;14973;51.460;7.008;2023-08-12T04:56:12;20.60;99.90
27534;DHT22;14973;51.460;7.008;2023-08-12T04:58:37;20.70;99.90
27534;DHT22;14973;51.460;7.008;2023-08-12T05:01:03;20.70;99.90
27534;DHT22;14973;51.460;7.008;2023-08-12T05:03:28;20.80;99.90
27534;DHT22;14973;51.460;7.008;2023-08-12T05:05:54;21.00;99.90
27534;DHT22;14973;51.460;7.008;2023-08-12T05:08:20;21.20;99.90
27534;DHT22;14973;51.460;7.008;2023-08-12T05:10:49;21.20;99.90
27534;DHT22;14973;51.460;7.008;2023-08-12T05:13:14;21.50;99.90
27534;DHT22;14973;51.460;7.008;2023-08-12T05:15:40;21.60;99.90
27534;DHT22;14973;51.460;7.008;2023-08-12T05:18:06;21.60;99.90
27534;DHT22;14973;51.460;7.008;2023-08-12T05:20:32;21.70;99.90
27534;DHT22;14973;51.460;7.008;2023-08-12T05:22:57;21.90;99.90
27534;DHT22;14973;51.460;7.008;2023-08-12T05:25:23;21.90;99.90
27534;DHT22;14973;51.460;7.008;2023-08-12T05:27:49;21.90;99.90
27534;DHT22;14973;51.460;7.008;2023-08-12T05:30:14;21.80;99.90
27534;DHT22;14973;51.460;7.008;2023-08-12T05:32:40;21.80;99.90
27534;DHT22;14973;51.460;7.008;2023-08-12T05:35:06;21.60;99.90
27534;DHT22;14973;51.460;7.008;2023-08-12T05:37:31;21.50;99.90
27534;DHT22;14973;51.460;7.008;2023-08-12T05:39:57;21.50;99.90
27534;DHT22;14973;51.460;7.008;2023-08-12T05:42:23;21.40;99.90
27534;DHT22;14973;51.460;7.008;2023-08-12T05:44:48;21.30;99.90
27534;DHT22;14973;51.460;7.008;2023-08-12T05:47:14;21.30;99.90
27534;DHT22;14973;51.460;7.008;2023-08-12T05:49:39;21.20;99.90
27534;DHT22;14973;51.460;7.008;2023-08-12T05:52:05;21.10;99.90
27534;DHT22;14973;51.460;7.008;2023-08-12T05:54:31;21.00;99.90
27534;DHT22;14973;51.460;7.008;2023-08-12T05:56:57;21.10;99.90
27534;DHT22;14973;51.460;7.008;2023-08-12T05:59:23;21.20;99.90
27534;DHT22;14973;51.460;7.008;2023-08-12T06:01:48;21.20;99.90
27534;DHT22;14973;51.460;7.008;2023-08-12T06:04:14;21.20;99.90
27534;DHT22;14973;51.460;7.008;2023-08-12T06:06:39;21.20;99.90
27534;DHT22;14973;51.460;7.008;2023-08-12T06:09:05;21.30;99.90
27534;DHT22;14973;51.460;7.008;2023-08-12T06:11:30;21.40;99.90
27534;DHT22;14973;51.460;7.008;2023-08-12T06:13:56;21.40;99.90
27534;DHT22;14973;51.460;7.008;2023-08-12T06:16:21;21.50;99.90
27534;DHT22;14973;51.460;7.008;2023-08-12T06:18:47;21.40;99.90
27534;DHT22;14973;51.460;7.008;2023-08-12T06:21:12;21.50;99.90
27534;DHT22;14973;51.460;7.008;2023-08-12T06:23:38;21.50;99.90
27534;DHT22;14973;51.460;7.008;2023-08-12T06:26:03;21.40;99.90
27534;DHT22;14973;51.460;7.008;2023-08-12T06:28:29;21.40;99.90
27534;DHT22;14973;51.460;7.008;2023-08-12T06:30:54;21.30;99.90
27534;DHT22;14973;51.460;7.008;2023-08-12T06:33:20;21.10;99.90
27534;DHT22;14973;51.460;7.008;2023-08-12T06:35:46;21.10;99.90
27534;DHT22;14973;51.460;7.008;2023-08-12T06:38:11;20.90;99.90
27534;DHT22;14973;51.460;7.008;2023-08-12T06:40:38;21.00;99.90
27534;DHT22;14973;51.460;7.008;2023-08-12T06:43:04;20.90;99.90
27534;DHT22;14973;51.460;7.008;2023-08-12T06:45:30;20.90;99.90
27534;DHT22;14973;51.460;7.008;2023-08-12T06:47:55;20.90;99.90
27534;DHT22;14973;51.460;7.008;2023-08-12T06:50:21;20.80;99.90
27534;DHT22;14973;51.460;7.008;2023-08-12T06:52:46;20.80;99.90
27534;DHT22;14973;51.460;7.008;2023-08-12T06:55:12;20.70;99.90
27534;DHT22;14973;51.460;7.008;2023-08-12T06:57:38;20.70;99.90
27534;DHT22;14973;51.460;7.008;2023-08-12T07:00:04;20.60;99.90
27534;DHT22;14973;51.460;7.008;2023-08-12T07:02:30;20.60;99.90
27534;DHT22;14973;51.460;7.008;2023-08-12T07:04:56;20.60;99.90
27534;DHT22;14973;51.460;7.008;2023-08-12T07:07:21;20.60;99.90
27534;DHT22;14973;51.460;7.008;2023-08-12T07:09:47;20.60;99.90
27534;DHT22;14973;51.460;7.008;2023-08-12T07:12:13;20.60;99.90
27534;DHT22;14973;51.460;7.008;2023-08-12T07:14:38;20.70;99.90
27534;DHT22;14973;51.460;7.008;2023-08-12T07:17:04;20.60;99.90
27534;DHT22;14973;51.460;7.008;2023-08-12T07:19:29;20.70;99.90
27534;DHT22;14973;51.460;7.008;2023-08-12T07:21:55;20.80;99.90
27534;DHT22;14973;51.460;7.008;2023-08-12T07:24:20;20.80;99.90
27534;DHT22;14973;51.460;7.008;2023-08-12T07:26:46;20.90;99.90
27534;DHT22;14973;51.460;7.008;2023-08-12T07:29:12;21.00;99.90
27534;DHT22;14973;51.460;7.008;2023-08-12T07:31:37;21.20;99.90
27534;DHT22;14973;51.460;7.008;2023-08-12T07:34:03;21.20;99.90
27534;DHT22;14973;51.460;7.008;2023-08-12T07:36:28;21.30;99.90
27534;DHT22;14973;51.460;7.008;2023-08-12T07:38:54;21.30;99.90
27534;DHT22;14973;51.460;7.008;2023-08-12T07:41:19;21.30;99.90
27534;DHT22;14973;51.460;7.008;2023-08-12T07:43:45;21.40;99.90
27534;DHT22;14973;51.460;7.008;2023-08-12T07:46:10;21.50;99.90
27534;DHT22;14973;51.460;7.008;2023-08-12T07:48:36;21.50;99.90
27534;DHT22;14973;51.460;7.008;2023-08-12T07:51:03;21.70;99.90
27534;DHT22;14973;51.460;7.008;2023-08-12T07:53:29;21.80;99.90
27534;DHT22;14973;51.460;7.008;2023-08-12T07:55:54;21.90;99.90
27534;DHT22;14973;51.460;7.008;2023-08-12T07:58:20;22.00;99.90
27534;DHT22;14973;51.460;7.008;2023-08-12T08:00:45;22.10;99.90
27534;DHT22;14973;51.460;7.008;2023-08-12T08:03:11;22.30;99.90
27534;DHT22;14973;51.460;7.008;2023-08-12T08:05:40;22.30;99.90
27534;DHT22;14973;51.460;7.008;2023-08-12T08:08:06;22.40;99.90
27534;DHT22;14973;51.460;7.008;2023-08-12T08:10:32;22.40;99.90
27534;DHT22;14973;51.460;7.008;2023-08-12T08:12:57;22.30;99.90
27534;DHT22;14973;51.460;7.008;2023-08-12T08:15:23;22.30;99.90
27534;DHT22;14973;51.460;7.008;2023-08-12T08:17:48;22.30;99.90
27534;DHT22;14973;51.460;7.008;2023-08-12T08:20:14;22.20;99.90
27534;DHT22;14973;51.460;7.008;2023-08-12T08:22:39;22.20;99.90
27534;DHT22;14973;51.460;7.008;2023-08-12T08:25:05;22.30;99.90
27534;DHT22;14973;51.460;7.008;2023-08-12T08:27:31;22.40;99.90
27534;DHT22;14973;51.460;7.008;2023-08-12T08:29:57;22.50;99.90
27534;DHT22;14973;51.460;7.008;2023-08-12T08:32:23;22.50;99.90
27534;DHT22;14973;51.460;7.008;2023-08-12T08:34:48;22.50;99.90
27534;DHT22;14973;51.460;7.008;2023-08-12T08:37:14;22.50;99.90
27534;DHT22;14973;51.460;7.008;2023-08-12T08:39:39;22.40;99.90
27534;DHT22;14973;51.460;7.008;2023-08-12T08:42:05;22.40;99.90
27534;DHT22;14973;51.460;7.008;2023-08-12T08:44:33;22.50;99.90
27534;DHT22;14973;51.460;7.008;2023-08-12T08:46:59;22.70;99.90
27534;DHT22;14973;51.460;7.008;2023-08-12T08:49:26;22.80;99.90
27534;DHT22;14973;51.460;7.008;2023-08-12T08:51:53;22.80;99.90
27534;DHT22;14973;51.460;7.008;2023-08-12T08:54:19;23.00;99.90
27534;DHT22;14973;51.460;7.008;2023-08-12T08:56:45;23.00;99.90
27534;DHT22;14973;51.460;7.008;2023-08-12T08:59:13;23.00;99.90
27534;DHT22;14973;51.460;7.008;2023-08-12T09:01:39;22.90;99.90
27534;DHT22;14973;51.460;7.008;2023-08-12T09:04:06;22.90;99.90
27534;DHT22;14973;51.460;7.008;2023-08-12T09:06:32;23.00;99.90
27534;DHT22;14973;51.460;7.008;2023-08-12T09:09:01;23.20;99.90
27534;DHT22;14973;51.460;7.008;2023-08-12T09:11:28;23.20;99.90
27534;DHT22;14973;51.460;7.008;2023-08-12T09:13:54;23.30;99.90
27534;DHT22;14973;51.460;7.008;2023-08-12T09:16:19;23.30;99.90
27534;DHT22;14973;51.460;7.008;2023-08-12T09:18:45;23.30;99.90
27534;DHT22;14973;51.460;7.008;2023-08-12T09:21:11;23.30;99.90
27534;DHT22;14973;51.460;7.008;2023-08-12T09:23:41;23.30;99.90
27534;DHT22;14973;51.460;7.008;2023-08-12T09:26:33;23.20;99.90
27534;DHT22;14973;51.460;7.008;2023-08-12T09:28:59;23.10;99.90
27534;DHT22;14973;51.460;7.008;2023-08-12T09:31:27;23.10;99.90
27534;DHT22;14973;51.460;7.008;2023-08-12T09:33:57;22.90;99.90
27534;DHT22;14973;51.460;7.008;2023-08-12T09:36:23;23.00;99.90
27534;DHT22;14973;51.460;7.008;2023-08-12T09:38:49;23.10;99.90
27534;DHT22;14973;51.460;7.008;2023-08-12T09:41:14;23.30;99.90
27534;DHT22;14973;51.460;7.008;2023-08-12T09:43:44;23.30;99.90
27534;DHT22;14973;51.460;7.008;2023-08-12T09:46:13;23.30;99.90
27534;DHT22;14973;51.460;7.008;2023-08-12T09:48:41;23.10;99.90
27534;DHT22;14973;51.460;7.008;2023-08-12T09:51:08;23.00;99.90
27534;DHT22;14973;51.460;7.008;2023-08-12T09:53:34;22.90;99.90
27534;DHT22;14973;51.460;7.008;2023-08-12T09:56:08;23.00;99.90
27534;DHT22;14973;51.460;7.008;2023-08-12T09:58:36;23.10;99.90
27534;DHT22;14973;51.460;7.008;2023-08-12T10:01:03;23.00;99.90
27534;DHT22;14973;51.460;7.008;2023-08-12T10:03:31;22.90;99.90
27534;DHT22;14973;51.460;7.008;2023-08-12T10:05:58;23.20;99.90
27534;DHT22;14973;51.460;7.008;2023-08-12T10:08:26;23.50;99.90
27534;DHT22;14973;51.460;7.008;2023-08-12T10:10:52;23.60;99.90
27534;DHT22;14973;51.460;7.008;2023-08-12T10:13:18;23.50;99.90
27534;DHT22;14973;51.460;7.008;2023-08-12T10:15:45;23.60;99.90
27534;DHT22;14973;51.460;7.008;2023-08-12T10:18:10;23.70;99.90
27534;DHT22;14973;51.460;7.008;2023-08-12T10:20:38;24.20;99.90
27534;DHT22;14973;51.460;7.008;2023-08-12T10:23:04;24.30;99.90
27534;DHT22;14973;51.460;7.008;2023-08-12T10:25:32;24.40;99.90
27534;DHT22;14973;51.460;7.008;2023-08-12T10:28:00;24.50;99.90
27534;DHT22;14973;51.460;7.008;2023-08-12T10:30:28;24.60;99.90
27534;DHT22;14973;51.460;7.008;2023-08-12T10:32:54;24.70;99.90
27534;DHT22;14973;51.460;7.008;2023-08-12T10:35:20;25.10;91.80
27534;DHT22;14973;51.460;7.008;2023-08-12T10:37:49;25.20;83.60
27534;DHT22;14973;51.460;7.008;2023-08-12T10:40:20;25.20;93.20
27534;DHT22;14973;51.460;7.008;2023-08-12T10:42:47;25.10;92.40
27534;DHT22;14973;51.460;7.008;2023-08-12T10:45:15;24.80;99.10
27534;DHT22;14973;51.460;7.008;2023-08-12T10:47:43;24.80;96.70
27534;DHT22;14973;51.460;7.008;2023-08-12T10:50:27;24.80;98.60
27534;DHT22;14973;51.460;7.008;2023-08-12T10:52:56;24.80;96.10
27534;DHT22;14973;51.460;7.008;2023-08-12T10:57:50;25.30;79.50
27534;DHT22;14973;51.460;7.008;2023-08-12T11:00:22;25.50;67.40
27534;DHT22;14973;51.460;7.008;2023-08-12T11:02:50;25.30;70.80
27534;DHT22;14973;51.460;7.008;2023-08-12T11:05:16;25.30;80.80
27534;DHT22;14973;51.460;7.008;2023-08-12T11:07:55;25.40;81.00
27534;DHT22;14973;51.460;7.008;2023-08-12T11:10:23;25.30;80.70
27534;DHT22;14973;51.460;7.008;2023-08-12T11:15:18;25.40;75.80
27534;DHT22;14973;51.460;7.008;2023-08-12T11:17:45;25.10;87.70
27534;DHT22;14973;51.460;7.008;2023-08-12T11:20:12;25.00;96.90
27534;DHT22;14973;51.460;7.008;2023-08-12T11:22:43;25.10;91.00
27534;DHT22;14973;51.460;7.008;2023-08-12T11:25:11;24.80;99.20
27534;DHT22;14973;51.460;7.008;2023-08-12T11:27:43;25.20;91.30
27534;DHT22;14973;51.460;7.008;2023-08-12T11:30:11;25.40;91.00
27534;DHT22;14973;51.460;7.008;2023-08-12T11:32:40;25.70;79.60
27534;DHT22;14973;51.460;7.008;2023-08-12T11:35:07;26.00;58.00
27534;DHT22;14973;51.460;7.008;2023-08-12T11:37:35;26.40;48.90
27534;DHT22;14973;51.460;7.008;2023-08-12T11:40:04;26.50;37.90
27534;DHT22;14973;51.460;7.008;2023-08-12T11:42:30;26.70;30.60
27534;DHT22;14973;51.460;7.008;2023-08-12T11:44:56;26.70;20.80
27534;DHT22;14973;51.460;7.008;2023-08-12T11:47:21;26.70;19.00
27534;DHT22;14973;51.460;7.008;2023-08-12T11:49:47;26.70;23.50
27534;DHT22;14973;51.460;7.008;2023-08-12T11:52:12;27.00;15.90
27534;DHT22;14973;51.460;7.008;2023-08-12T11:54:39;27.30;99.90
27534;DHT22;14973;51.460;7.008;2023-08-12T11:57:05;27.20;99.90
27534;DHT22;14973;51.460;7.008;2023-08-12T11:59:31;27.20;99.90
27534;DHT22;14973;51.460;7.008;2023-08-12T12:01:57;27.00;99.90
27534;DHT22;14973;51.460;7.008;2023-08-12T12:04:23;26.90;99.90
27534;DHT22;14973;51.460;7.008;2023-08-12T12:06:49;26.60;99.90
27534;DHT22;14973;51.460;7.008;2023-08-12T12:09:15;26.30;1.00
27534;DHT22;14973;51.460;7.008;2023-08-12T12:11:43;25.90;1.00
27534;DHT22;14973;51.460;7.008;2023-08-12T12:14:10;25.70;1.00
27534;DHT22;14973;51.460;7.008;2023-08-12T12:16:47;25.30;1.00
27534;DHT22;14973;51.460;7.008;2023-08-12T12:19:17;25.20;1.00
27534;DHT22;14973;51.460;7.008;2023-08-12T12:21:45;24.90;23.70
27534;DHT22;14973;51.460;7.008;2023-08-12T12:24:11;24.60;57.10
27534;DHT22;14973;51.460;7.008;2023-08-12T12:26:37;24.30;70.30
27534;DHT22;14973;51.460;7.008;2023-08-12T12:29:04;24.10;75.70
27534;DHT22;14973;51.460;7.008;2023-08-12T12:31:35;23.70;91.30
27534;DHT22;14973;51.460;7.008;2023-08-12T12:34:05;23.30;93.30
27534;DHT22;14973;51.460;7.008;2023-08-12T12:36:31;23.10;99.90
27534;DHT22;14973;51.460;7.008;2023-08-12T12:38:57;22.80;99.90
27534;DHT22;14973;51.460;7.008;2023-08-12T12:41:23;22.60;99.90
27534;DHT22;14973;51.460;7.008;2023-08-12T12:43:48;22.50;99.90
27534;DHT22;14973;51.460;7.008;2023-08-12T12:46:15;22.30;99.90
27534;DHT22;14973;51.460;7.008;2023-08-12T12:48:41;22.20;99.90
27534;DHT22;14973;51.460;7.008;2023-08-12T12:51:07;22.10;99.90
27534;DHT22;14973;51.460;7.008;2023-08-12T12:53:32;22.10;99.90
27534;DHT22;14973;51.460;7.008;2023-08-12T12:55:58;22.00;99.90
27534;DHT22;14973;51.460;7.008;2023-08-12T12:58:35;21.60;99.90
27534;DHT22;14973;51.460;7.008;2023-08-12T13:01:02;21.70;99.90
27534;DHT22;14973;51.460;7.008;2023-08-12T13:03:27;21.70;99.90
27534;DHT22;14973;51.460;7.008;2023-08-12T13:05:54;21.70;99.90
27534;DHT22;14973;51.460;7.008;2023-08-12T13:08:20;21.80;99.90
27534;DHT22;14973;51.460;7.008;2023-08-12T13:10:45;22.00;99.90
27534;DHT22;14973;51.460;7.008;2023-08-12T13:13:14;22.10;99.90
27534;DHT22;14973;51.460;7.008;2023-08-12T13:15:41;22.10;99.90
27534;DHT22;14973;51.460;7.008;2023-08-12T13:18:07;22.20;99.90
27534;DHT22;14973;51.460;7.008;2023-08-12T13:20:33;22.30;99.90
27534;DHT22;14973;51.460;7.008;2023-08-12T13:23:00;22.40;99.90
27534;DHT22;14973;51.460;7.008;2023-08-12T13:25:28;22.50;99.90
27534;DHT22;14973;51.460;7.008;2023-08-12T13:27:53;22.70;99.90
27534;DHT22;14973;51.460;7.008;2023-08-12T13:30:19;22.90;99.90
27534;DHT22;14973;51.460;7.008;2023-08-12T13:32:44;23.00;99.90
27534;DHT22;14973;51.460;7.008;2023-08-12T13:35:10;23.30;99.90
27534;DHT22;14973;51.460;7.008;2023-08-12T13:37:36;23.50;99.90
27534;DHT22;14973;51.460;7.008;2023-08-12T13:40:02;23.60;99.90
27534;DHT22;14973;51.460;7.008;2023-08-12T13:42:28;23.50;99.90
27534;DHT22;14973;51.460;7.008;2023-08-12T13:44:53;23.60;99.90
27534;DHT22;14973;51.460;7.008;2023-08-12T13:47:19;23.50;99.90
27534;DHT22;14973;51.460;7.008;2023-08-12T13:49:44;23.40;99.90
27534;DHT22;14973;51.460;7.008;2023-08-12T13:52:10;23.00;99.90
27534;DHT22;14973;51.460;7.008;2023-08-12T13:54:35;22.80;99.90
27534;DHT22;14973;51.460;7.008;2023-08-12T13:57:02;22.60;99.90
27534;DHT22;14973;51.460;7.008;2023-08-12T13:59:29;22.50;99.90
27534;DHT22;14973;51.460;7.008;2023-08-12T14:01:55;22.30;99.90
27534;DHT22;14973;51.460;7.008;2023-08-12T14:04:20;22.30;99.90
27534;DHT22;14973;51.460;7.008;2023-08-12T14:06:46;22.40;99.90
27534;DHT22;14973;51.460;7.008;2023-08-12T14:09:11;22.60;99.90
27534;DHT22;14973;51.460;7.008;2023-08-12T14:11:39;22.90;99.90
27534;DHT22;14973;51.460;7.008;2023-08-12T14:14:05;23.10;99.90
27534;DHT22;14973;51.460;7.008;2023-08-12T14:16:30;23.30;99.90
27534;DHT22;14973;51.460;7.008;2023-08-12T14:18:56;23.70;99.90
27534;DHT22;14973;51.460;7.008;2023-08-12T14:21:21;23.80;99.90
27534;DHT22;14973;51.460;7.008;2023-08-12T14:23:47;24.10;99.90
27534;DHT22;14973;51.460;7.008;2023-08-12T14:26:13;24.40;99.90
27534;DHT22;14973;51.460;7.008;2023-08-12T14:28:38;24.80;99.90
27534;DHT22;14973;51.460;7.008;2023-08-12T14:31:04;24.70;99.90
27534;DHT22;14973;51.460;7.008;2023-08-12T14:33:29;24.90;97.80
27534;DHT22;14973;51.460;7.008;2023-08-12T14:35:58;25.00;88.20
27534;DHT22;14973;51.460;7.008;2023-08-12T14:38:24;24.80;82.20
27534;DHT22;14973;51.460;7.008;2023-08-12T14:40:49;24.80;90.20
27534;DHT22;14973;51.460;7.008;2023-08-12T14:43:15;24.60;98.20
27534;DHT22;14973;51.460;7.008;2023-08-12T14:45:41;24.40;99.90
27534;DHT22;14973;51.460;7.008;2023-08-12T14:48:06;24.30;99.90
27534;DHT22;14973;51.460;7.008;2023-08-12T14:50:32;24.20;99.90
27534;DHT22;14973;51.460;7.008;2023-08-12T14:52:58;24.00;99.90
27534;DHT22;14973;51.460;7.008;2023-08-12T14:55:23;23.90;99.90
27534;DHT22;14973;51.460;7.008;2023-08-12T14:57:49;24.00;99.90
27534;DHT22;14973;51.460;7.008;2023-08-12T15:00:15;24.00;98.40
27534;DHT22;14973;51.460;7.008;2023-08-12T15:02:40;24.00;99.90
27534;DHT22;14973;51.460;7.008;2023-08-12T15:05:06;24.00;99.90
27534;DHT22;14973;51.460;7.008;2023-08-12T15:07:32;24.10;99.90
27534;DHT22;14973;51.460;7.008;2023-08-12T15:09:58;24.20;96.40
27534;DHT22;14973;51.460;7.008;2023-08-12T15:12:24;24.30;72.20
27534;DHT22;14973;51.460;7.008;2023-08-12T15:14:50;24.40;78.00
27534;DHT22;14973;51.460;7.008;2023-08-12T15:17:16;24.50;72.80
27534;DHT22;14973;51.460;7.008;2023-08-12T15:19:41;24.60;52.10
27534;DHT22;14973;51.460;7.008;2023-08-12T15:22:07;24.50;51.40
27534;DHT22;14973;51.460;7.008;2023-08-12T15:24:32;24.30;53.20
27534;DHT22;14973;51.460;7.008;2023-08-12T15:26:59;24.30;49.40
27534;DHT22;14973;51.460;7.008;2023-08-12T15:29:25;24.10;58.50